Time;durP1;ratioP1;P1;durP2;ratioP2;P2;SDS_P1;SDS_P2;PMS_P1;PMS_P2;Temp;Humidity;BMP_temperature;BMP_pressure;BME280_temperature;BME280_humidity;BME280_pressure;Samples;Min_cycle;Max_cycle;Signal;HPM_P1;HPM_P2
2022/05/23 00:08:54;;;;;;;2.85;0.60;;;17.40;99.90;;;;;;20673382;28;20045;-39
2022/05/23 00:18:55;;;;;;;1.30;0.63;;;17.30;99.90;;;;;;20675059;28;20597;-39
2022/05/23 00:28:56;;;;;;;0.75;0.47;;;17.30;99.90;;;;;;20670125;28;20048;-39
2022/05/23 00:38:58;;;;;;;1.30;0.50;;;17.20;99.90;;;;;;20675109;28;20034;-39
2022/05/23 00:49:02;;;;;;;1.83;0.70;;;17.00;99.90;;;;;;20700316;28;20497;-39
2022/05/23 00:59:05;;;;;;;1.63;0.80;;;16.90;99.90;;;;;;20692168;28;20601;-39
2022/05/23 01:09:07;;;;;;;1.48;0.52;;;16.80;99.90;;;;;;20690621;28;20528;-39
2022/05/23 01:19:08;;;;;;;1.25;0.55;;;16.70;99.90;;;;;;20684644;28;20104;-39
2022/05/23 01:29:14;;;;;;;0.75;0.40;;;16.60;99.90;;;;;;20686319;28;20049;-39
2022/05/23 01:39:15;;;;;;;1.13;0.47;;;16.50;99.90;;;;;;20686831;28;20050;-39
2022/05/23 01:49:16;;;;;;;1.67;0.80;;;16.30;99.90;;;;;;20696702;28;20049;-39
2022/05/23 02:09:37;;;;;;;1.52;1.13;;;16.10;99.90;;;;;;20685233;28;20161;-39
2022/05/23 02:19:38;;;;;;;1.05;0.65;;;16.00;99.90;;;;;;20685137;28;20049;-39
2022/05/23 02:29:39;;;;;;;2.17;0.77;;;15.90;99.90;;;;;;20685402;28;20280;-39
2022/05/23 02:39:40;;;;;;;1.13;0.80;;;15.80;99.90;;;;;;20680989;28;20073;-39
2022/05/23 02:49:41;;;;;;;1.67;0.73;;;15.70;99.90;;;;;;20678774;28;20056;-39
2022/05/23 02:59:42;;;;;;;1.35;0.52;;;15.70;99.90;;;;;;20678104;28;20034;-39
2022/05/23 03:09:44;;;;;;;1.08;0.57;;;15.50;99.90;;;;;;20672544;28;20057;-39
2022/05/23 03:19:45;;;;;;;1.05;0.50;;;15.50;99.90;;;;;;20684555;28;20061;-39
2022/05/23 03:29:46;;;;;;;1.00;0.50;;;15.50;99.90;;;;;;20653778;28;20402;-39
2022/05/23 03:39:48;;;;;;;1.98;0.93;;;15.40;99.90;;;;;;20683407;28;20417;-39
2022/05/23 03:49:49;;;;;;;1.73;0.75;;;15.30;99.90;;;;;;20694190;28;20045;-39
2022/05/23 03:59:52;;;;;;;2.60;1.45;;;15.20;99.90;;;;;;20681951;28;20275;-39
2022/05/23 04:09:54;;;;;;;1.60;0.90;;;15.10;99.90;;;;;;20693497;28;20046;-39
2022/05/23 04:19:55;;;;;;;1.20;0.60;;;15.00;99.90;;;;;;20664140;28;20614;-39
2022/05/23 04:29:57;;;;;;;1.70;0.77;;;15.00;99.90;;;;;;20673470;28;20069;-39
2022/05/23 04:39:58;;;;;;;2.22;1.00;;;14.90;99.90;;;;;;20677745;28;20197;-39
2022/05/23 04:50:00;;;;;;;2.45;1.15;;;14.90;99.90;;;;;;20667013;28;20046;-39
2022/05/23 05:00:06;;;;;;;1.67;0.85;;;15.00;99.90;;;;;;20681878;28;20053;-39
2022/05/23 05:10:08;;;;;;;2.45;0.98;;;14.90;99.90;;;;;;20696317;28;20402;-39
2022/05/23 05:20:10;;;;;;;7.45;1.30;;;15.00;99.90;;;;;;20681219;28;20042;-39
2022/05/23 05:30:15;;;;;;;4.05;1.75;;;15.10;99.90;;;;;;20681292;28;20048;-39
2022/05/23 05:40:23;;;;;;;1.77;0.63;;;15.30;99.90;;;;;;20684366;28;20557;-39
2022/05/23 05:50:28;;;;;;;2.40;1.30;;;15.30;99.90;;;;;;20687674;28;20069;-39
2022/05/23 06:00:30;;;;;;;7.55;1.95;;;15.40;99.90;;;;;;20694143;28;20104;-39
2022/05/23 06:20:52;;;;;;;3.28;1.73;;;15.80;99.90;;;;;;20700105;28;20409;-39
2022/05/23 06:30:54;;;;;;;1.92;1.08;;;16.10;99.90;;;;;;20704223;28;20044;-39
2022/05/23 06:40:55;;;;;;;2.67;1.08;;;16.20;99.90;;;;;;20692781;28;20041;-39
2022/05/23 06:50:57;;;;;;;1.92;1.10;;;16.30;99.90;;;;;;20705253;28;20053;-39
2022/05/23 07:00:58;;;;;;;1.50;0.95;;;16.50;99.90;;;;;;20679368;28;20512;-39
2022/05/23 07:21:26;;;;;;;6.70;1.08;;;17.10;99.90;;;;;;20680743;28;20160;-39
2022/05/23 07:31:27;;;;;;;5.28;1.13;;;17.40;99.90;;;;;;20690197;28;20048;-39
2022/05/23 07:41:28;;;;;;;2.92;1.17;;;17.70;99.90;;;;;;20668956;28;21071;-39
2022/05/23 07:51:30;;;;;;;1.52;0.93;;;17.80;99.90;;;;;;20665019;28;20099;-39
2022/05/23 08:01:32;;;;;;;2.63;1.15;;;17.90;99.90;;;;;;20690067;28;20065;-39
2022/05/23 08:11:33;;;;;;;2.83;1.55;;;18.10;99.90;;;;;;20693939;28;20497;-39
2022/05/23 08:21:38;;;;;;;1.88;1.23;;;18.40;99.90;;;;;;20681419;28;20494;-39
2022/05/23 08:31:40;;;;;;;3.15;1.52;;;18.70;99.90;;;;;;20682247;28;20064;-39
2022/05/23 08:41:44;;;;;;;2.97;1.50;;;19.00;99.90;;;;;;20705635;28;20042;-39
2022/05/23 08:51:58;;;;;;;3.88;1.50;;;19.40;99.90;;;;;;20710051;28;20049;-39
2022/05/23 09:02:03;;;;;;;2.83;1.60;;;19.90;99.90;;;;;;20710905;28;20524;-39
2022/05/23 09:12:10;;;;;;;4.28;1.92;;;20.40;99.90;;;;;;20719803;28;20398;-40
2022/05/23 09:22:18;;;;;;;1.37;0.70;;;20.60;99.90;;;;;;20721835;28;20506;-39
2022/05/23 09:32:24;;;;;;;2.05;1.20;;;20.50;99.90;;;;;;20729626;28;20380;-39
2022/05/23 09:52:50;;;;;;;2.35;1.40;;;20.40;99.90;;;;;;20702546;28;20104;-39
2022/05/23 10:03:02;;;;;;;2.60;1.00;;;20.20;99.90;;;;;;20739766;28;20038;-39
2022/05/23 10:13:30;;;;;;;2.65;0.90;;;20.20;99.90;;;;;;20736358;28;20053;-40
2022/05/23 10:23:35;;;;;;;1.95;0.95;;;20.10;99.90;;;;;;20738906;28;21393;-39
2022/05/23 10:33:39;;;;;;;2.85;1.13;;;20.30;99.90;;;;;;20732529;28;20092;-39
2022/05/23 10:44:14;;;;;;;2.55;1.13;;;20.30;99.90;;;;;;20705529;28;20041;-39
2022/05/23 10:54:55;;;;;;;4.43;1.77;;;20.40;99.90;;;;;;20711369;28;20460;-39
2022/05/23 11:05:24;;;;;;;2.40;1.10;;;20.50;99.90;;;;;;20697601;28;20770;-39
2022/05/23 11:15:53;;;;;;;3.75;1.35;;;20.50;99.90;;;;;;20709269;28;20442;-39
2022/05/23 11:26:12;;;;;;;2.55;1.13;;;20.70;99.90;;;;;;20715656;28;20153;-39
2022/05/23 11:36:23;;;;;;;3.55;1.73;;;21.80;99.90;;;;;;20718302;28;20654;-39
2022/05/23 11:47:04;;;;;;;2.53;1.00;;;22.10;99.90;;;;;;20712181;28;20042;-40
2022/05/23 11:57:05;;;;;;;1.67;0.90;;;22.10;99.90;;;;;;20705098;28;21555;-39
2022/05/23 12:07:07;;;;;;;3.67;1.30;;;21.80;99.90;;;;;;20717540;28;20132;-39
2022/05/23 12:17:27;;;;;;;2.17;1.13;;;22.00;99.90;;;;;;20714802;28;20046;-39
2022/05/23 12:27:30;;;;;;;3.50;1.00;;;22.00;99.90;;;;;;20712384;28;21530;-39
2022/05/23 12:37:38;;;;;;;1.63;1.10;;;22.10;99.90;;;;;;20719271;28;20052;-40
2022/05/23 12:48:00;;;;;;;1.95;0.73;;;21.80;99.90;;;;;;20699948;28;20053;-39
2022/05/23 12:58:24;;;;;;;1.50;0.82;;;21.30;99.90;;;;;;20649000;28;20047;-39
2022/05/23 13:08:36;;;;;;;1.33;0.60;;;20.90;99.90;;;;;;20734337;28;20049;-39
2022/05/23 13:29:10;;;;;;;1.30;0.70;;;20.50;99.90;;;;;;20733585;28;20046;-39
2022/05/23 13:39:14;;;;;;;3.42;1.60;;;20.50;99.90;;;;;;20720642;28;20057;-39
2022/05/23 13:49:33;;;;;;;3.65;1.92;;;20.20;99.90;;;;;;20699756;28;20057;-39
2022/05/23 13:59:41;;;;;;;3.72;2.30;;;18.90;99.90;;;;;;20650677;28;20545;-39
2022/05/23 14:09:48;;;;;;;4.53;2.80;;;18.30;99.90;;;;;;20645223;28;20053;-39
2022/05/23 14:19:56;;;;;;;4.93;1.93;;;17.90;99.90;;;;;;20641803;28;20548;-40
2022/05/23 14:30:29;;;;;;;5.13;3.15;;;17.60;99.90;;;;;;20641953;28;20544;-39
2022/05/23 14:40:41;;;;;;;6.05;3.30;;;17.70;99.90;;;;;;20641840;28;20504;-39
2022/05/23 14:50:54;;;;;;;3.70;3.03;;;17.60;99.90;;;;;;20679526;28;20116;-39
2022/05/23 15:00:56;;;;;;;5.50;3.35;;;17.60;99.90;;;;;;20680528;28;20060;-39
2022/05/23 15:10:58;;;;;;;6.35;3.55;;;17.50;99.90;;;;;;20719113;28;20046;-39
2022/05/23 15:21:00;;;;;;;5.32;3.20;;;17.60;99.90;;;;;;20712622;28;20041;-39
2022/05/23 15:31:07;;;;;;;6.20;3.45;;;17.40;99.90;;;;;;20680563;28;20056;-39
2022/05/23 15:41:09;;;;;;;5.10;2.53;;;17.20;99.90;;;;;;20712088;28;20042;-39
2022/05/23 15:51:12;;;;;;;6.88;3.50;;;17.10;99.90;;;;;;20686136;28;20046;-39
2022/05/23 16:01:15;;;;;;;7.35;4.70;;;17.00;99.90;;;;;;20711308;28;20493;-39
2022/05/23 16:11:28;;;;;;;12.60;8.23;;;17.10;99.90;;;;;;20724875;28;20049;-39
2022/05/23 16:21:31;;;;;;;11.13;4.60;;;16.60;99.90;;;;;;20726424;28;20400;-39
2022/05/23 16:31:33;;;;;;;5.32;2.80;;;15.80;99.90;;;;;;20729540;28;20041;-39
2022/05/23 16:41:35;;;;;;;4.82;2.28;;;15.20;99.90;;;;;;20729584;28;20034;-39
2022/05/23 16:51:36;;;;;;;3.67;1.85;;;14.90;99.90;;;;;;20710803;28;20631;-39
2022/05/23 17:01:38;;;;;;;3.30;1.83;;;14.70;99.90;;;;;;20711405;28;20049;-39
2022/05/23 17:11:40;;;;;;;4.78;2.58;;;14.70;99.90;;;;;;20713960;28;20042;-39
2022/05/23 17:21:43;;;;;;;4.50;2.58;;;14.60;99.90;;;;;;20699057;28;20044;-39
2022/05/23 17:31:44;;;;;;;5.60;4.10;;;14.50;99.90;;;;;;20709838;28;20069;-40
2022/05/23 17:41:45;;;;;;;5.03;2.55;;;14.40;99.90;;;;;;20727795;28;20802;-39
2022/05/23 17:51:46;;;;;;;15.32;3.10;;;14.40;99.90;;;;;;20719421;28;20420;-39
2022/05/23 18:01:48;;;;;;;3.58;1.52;;;14.30;99.90;;;;;;20707787;28;20537;-39
2022/05/23 18:11:49;;;;;;;4.78;2.78;;;14.10;99.90;;;;;;20717494;28;20076;-40
2022/05/23 18:21:54;;;;;;;2.05;1.20;;;14.10;99.90;;;;;;20718868;28;20141;-41
2022/05/23 18:31:56;;;;;;;3.60;1.95;;;14.10;99.90;;;;;;20717798;28;20045;-41
2022/05/23 18:41:57;;;;;;;2.15;1.25;;;14.10;99.90;;;;;;20713279;28;20044;-41
2022/05/23 18:51:59;;;;;;;3.95;1.25;;;14.10;99.90;;;;;;20717011;28;20060;-41
2022/05/23 19:02:02;;;;;;;2.05;1.40;;;14.00;99.90;;;;;;20709376;28;20038;-41
2022/05/23 19:12:06;;;;;;;2.03;1.20;;;14.00;99.90;;;;;;20707718;28;20591;-41
2022/05/23 19:22:07;;;;;;;3.03;1.00;;;14.00;99.90;;;;;;20709459;28;21324;-41
2022/05/23 19:32:10;;;;;;;2.53;1.33;;;14.00;99.90;;;;;;20701819;28;20037;-41
2022/05/23 19:42:14;;;;;;;2.72;1.33;;;14.00;99.90;;;;;;20711075;28;20045;-41
2022/05/23 19:52:16;;;;;;;3.13;1.70;;;14.10;99.90;;;;;;20705666;28;20471;-40
2022/05/23 20:12:42;;;;;;;1.80;0.90;;;14.10;99.90;;;;;;20714115;28;20072;-41
2022/05/23 20:22:45;;;;;;;1.98;1.10;;;13.90;99.90;;;;;;20711215;28;20066;-40
2022/05/23 20:32:46;;;;;;;6.50;1.10;;;13.90;99.90;;;;;;20713482;28;20049;-40
2022/05/23 20:42:49;;;;;;;2.10;0.70;;;13.80;99.90;;;;;;20703730;28;20429;-41
2022/05/23 20:52:51;;;;;;;1.85;0.70;;;13.90;99.90;;;;;;20702757;28;20528;-40
2022/05/23 21:02:53;;;;;;;2.60;0.98;;;13.90;99.90;;;;;;20708323;28;20037;-40
2022/05/23 21:12:55;;;;;;;5.35;1.20;;;13.90;99.90;;;;;;20719243;28;20515;-40
2022/05/23 21:22:56;;;;;;;3.67;1.75;;;13.80;99.90;;;;;;20716621;28;20044;-41
2022/05/23 21:32:59;;;;;;;4.00;1.88;;;13.80;99.90;;;;;;20717319;28;20046;-41
2022/05/23 21:53:19;;;;;;;4.68;2.58;;;13.80;99.90;;;;;;20709418;28;20470;-41
2022/05/23 22:03:20;;;;;;;5.57;2.75;;;13.80;99.90;;;;;;20711674;28;20057;-40
2022/05/23 22:13:23;;;;;;;6.03;3.28;;;13.80;99.90;;;;;;20710016;28;20049;-41
2022/05/23 22:23:24;;;;;;;6.78;3.72;;;13.80;99.90;;;;;;20713060;28;20124;-41
2022/05/23 22:33:25;;;;;;;4.18;2.72;;;13.90;99.90;;;;;;20712481;28;20799;-41
2022/05/23 22:43:26;;;;;;;9.07;3.38;;;13.90;99.90;;;;;;20712581;28;20505;-40
2022/05/23 22:53:28;;;;;;;4.28;2.35;;;13.90;99.90;;;;;;20645667;28;20057;-40
2022/05/23 23:13:48;;;;;;;4.28;2.25;;;13.90;99.90;;;;;;20608909;28;20061;-41
2022/05/23 23:23:49;;;;;;;5.90;2.83;;;13.80;99.90;;;;;;20626232;28;20118;-41
2022/05/23 23:44:10;;;;;;;8.15;3.30;;;13.90;99.90;;;;;;20621625;28;21574;-41
2022/05/23 23:54:11;;;;;;;9.13;4.25;;;14.00;99.90;;;;;;20626201;28;20528;-41
